createdAt,value
2019-01-19T00:00:57.796Z,43.21
2019-01-19T00:01:57.638Z,43.21
2019-01-19T00:02:57.720Z,43.16
2019-01-19T00:03:57.774Z,43.22
2019-01-19T00:04:57.634Z,43.19
2019-01-19T00:05:57.998Z,43.22
2019-01-19T00:06:57.776Z,43.16
2019-01-19T00:07:57.683Z,43.17
2019-01-19T00:08:57.754Z,43.22
2019-01-19T00:09:57.683Z,43.23
2019-01-19T00:10:57.833Z,43.19
2019-01-19T00:11:57.748Z,43.18
2019-01-19T00:12:57.773Z,43.18
2019-01-19T00:13:57.677Z,43.17
2019-01-19T00:14:57.871Z,43.19
2019-01-19T00:15:57.853Z,43.23
2019-01-19T00:16:57.816Z,43.15
2019-01-19T00:17:57.878Z,43.16
2019-01-19T00:18:57.965Z,43.17
2019-01-19T00:19:57.798Z,43.18
2019-01-19T00:20:57.646Z,43.17
2019-01-19T00:21:58.103Z,43.17
2019-01-19T00:22:57.985Z,43.18
2019-01-19T00:23:57.714Z,43.18
2019-01-19T00:24:57.976Z,43.21
2019-01-19T00:25:57.732Z,43.18
2019-01-19T00:26:57.870Z,43.19
2019-01-19T00:27:57.979Z,43.22
2019-01-19T00:28:58.375Z,43.2
2019-01-19T00:29:57.922Z,43.2
2019-01-19T00:30:58.020Z,43.18
2019-01-19T00:31:58.314Z,43.22
2019-01-19T00:32:57.949Z,43.16
2019-01-19T00:33:57.870Z,43.19
2019-01-19T00:34:57.772Z,43.16
2019-01-19T00:35:57.685Z,43.18
2019-01-19T00:36:57.894Z,43.13
2019-01-19T00:37:57.737Z,43.17
2019-01-19T00:38:58.159Z,43.14
2019-01-19T00:39:57.834Z,43.16
2019-01-19T00:40:58.208Z,43.12
2019-01-19T00:41:59.528Z,43.19
2019-01-19T00:42:58.745Z,43.18
2019-01-19T00:43:58.557Z,43.18
2019-01-19T00:44:57.897Z,43.13
2019-01-19T00:45:58.078Z,43.15
2019-01-19T00:46:58.153Z,43.14
2019-01-19T00:47:59.525Z,43.18
2019-01-19T00:48:58.086Z,43.17
2019-01-19T00:49:57.564Z,43.17
2019-01-19T00:50:57.691Z,43.16
2019-01-19T00:51:57.857Z,43.18
2019-01-19T00:52:59.209Z,43.16
2019-01-19T00:53:57.622Z,43.17
2019-01-19T00:54:57.757Z,43.17
2019-01-19T00:55:57.881Z,43.16
2019-01-19T00:56:57.592Z,43.17
2019-01-19T00:57:57.942Z,43.11
2019-01-19T00:58:57.737Z,43.17
2019-01-19T00:59:57.612Z,43.12
2019-01-19T01:00:58.026Z,43.1
2019-01-19T01:01:57.810Z,43.16
2019-01-19T01:02:57.608Z,43.13
2019-01-19T01:03:57.780Z,43.12
2019-01-19T01:04:57.905Z,43.13
2019-01-19T01:05:57.635Z,43.13
2019-01-19T01:06:57.720Z,43.16
2019-01-19T01:07:57.754Z,43.17
2019-01-19T01:08:59.467Z,43.13
2019-01-19T01:09:57.733Z,43.12
2019-01-19T01:10:57.975Z,43.12
2019-01-19T01:11:58.095Z,43.15
2019-01-19T01:12:57.692Z,43.12
2019-01-19T01:13:58.196Z,43.11
2019-01-19T01:14:57.795Z,43.11
2019-01-19T01:15:57.973Z,43.12
2019-01-19T01:16:57.778Z,43.12
2019-01-19T01:17:59.467Z,43.1
2019-01-19T01:18:58.145Z,43.09
2019-01-19T01:19:58.033Z,43.13
2019-01-19T01:20:57.831Z,43.14
2019-01-19T01:21:58.126Z,43.14
2019-01-19T01:22:58.049Z,43.1
2019-01-19T01:23:57.847Z,43.11
2019-01-19T01:24:57.884Z,43.1
2019-01-19T01:25:58.241Z,43.13
2019-01-19T01:26:57.860Z,43.11
2019-01-19T01:27:57.875Z,43.1
2019-01-19T01:28:57.557Z,43.06
2019-01-19T01:29:57.893Z,43.09
2019-01-19T01:30:57.756Z,43.13
2019-01-19T01:31:58.086Z,43.13
2019-01-19T01:32:57.760Z,43.06
2019-01-19T01:33:57.593Z,43.12
2019-01-19T01:34:58.046Z,43.07
2019-01-19T01:35:57.845Z,43.1
2019-01-19T01:36:57.961Z,43.06
2019-01-19T01:37:57.571Z,43.1
2019-01-19T01:38:57.932Z,43.12
2019-01-19T01:39:57.783Z,43.08
2019-01-19T01:40:58.102Z,43.12
2019-01-19T01:41:58.162Z,43.07
2019-01-19T01:42:58.010Z,43.08
2019-01-19T01:43:57.531Z,43.08
2019-01-19T01:44:57.668Z,43.1
2019-01-19T01:45:57.754Z,43.08
2019-01-19T01:46:57.786Z,43.03
2019-01-19T01:47:57.808Z,43.07
2019-01-19T01:48:57.744Z,43.13
2019-01-19T01:49:57.464Z,43.02
2019-01-19T01:50:57.669Z,43.09
2019-01-19T01:51:57.730Z,43.11
2019-01-19T01:52:57.766Z,43.02
2019-01-19T01:53:57.747Z,43.07
2019-01-19T01:54:57.781Z,43.05
2019-01-19T01:55:57.745Z,43.01
2019-01-19T01:56:57.636Z,43.04
2019-01-19T01:57:57.636Z,43.05
2019-01-19T01:58:57.794Z,43.09
2019-01-19T01:59:57.777Z,42.99
2019-01-19T02:00:57.756Z,43.04
2019-01-19T02:01:57.823Z,43.09
2019-01-19T02:02:57.858Z,43.04
2019-01-19T02:03:57.957Z,43.03
2019-01-19T02:04:58.427Z,43.06
2019-01-19T02:05:58.653Z,43.02
2019-01-19T02:06:57.847Z,43.04
2019-01-19T02:07:57.961Z,43.06
2019-01-19T02:08:58.005Z,43.05
2019-01-19T02:09:57.733Z,43.04
2019-01-19T02:10:57.751Z,42.99
2019-01-19T02:11:57.620Z,43.05
2019-01-19T02:12:57.890Z,43.05
2019-01-19T02:13:57.750Z,43.02
2019-01-19T02:14:57.910Z,43.02
2019-01-19T02:15:57.719Z,43.01
2019-01-19T02:16:57.740Z,43
2019-01-19T02:17:57.521Z,43.05
2019-01-19T02:18:57.767Z,43.02
2019-01-19T02:19:57.712Z,43
2019-01-19T02:20:57.977Z,43.04
2019-01-19T02:21:57.967Z,43.06
2019-01-19T02:22:57.680Z,43.02
2019-01-19T02:23:57.612Z,42.99
2019-01-19T02:24:57.567Z,43.01
2019-01-19T02:25:57.883Z,43.01
2019-01-19T02:26:57.757Z,42.95
2019-01-19T02:27:57.910Z,43.02
2019-01-19T02:28:57.692Z,43.01
2019-01-19T02:29:57.847Z,42.95
2019-01-19T02:30:57.675Z,43
2019-01-19T02:31:57.716Z,43.01
2019-01-19T02:32:57.752Z,42.98
2019-01-19T02:33:57.761Z,43.01
2019-01-19T02:34:57.991Z,42.98
2019-01-19T02:35:57.591Z,42.97
2019-01-19T02:36:57.612Z,43.01
2019-01-19T02:37:57.996Z,42.97
2019-01-19T02:38:57.867Z,43.01
2019-01-19T02:39:57.851Z,42.94
2019-01-19T02:40:57.787Z,43
2019-01-19T02:41:57.648Z,42.98
2019-01-19T02:42:57.757Z,42.95
2019-01-19T02:43:57.907Z,42.96
2019-01-19T02:44:57.587Z,43
2019-01-19T02:45:58.372Z,42.99
2019-01-19T02:46:58.142Z,42.97
2019-01-19T02:47:57.870Z,43
2019-01-19T02:48:57.960Z,43
2019-01-19T02:49:57.746Z,42.97
2019-01-19T02:50:57.658Z,43
2019-01-19T02:51:57.789Z,42.98
2019-01-19T02:52:57.897Z,42.99
2019-01-19T02:53:58.053Z,42.93
2019-01-19T02:54:57.742Z,42.99
2019-01-19T02:55:58.398Z,42.93
2019-01-19T02:56:57.853Z,42.92
2019-01-19T02:57:58.188Z,42.97
2019-01-19T02:58:57.707Z,43.01
2019-01-19T02:59:59.569Z,42.96
2019-01-19T03:00:57.575Z,42.95
2019-01-19T03:01:57.650Z,42.95
2019-01-19T03:02:57.735Z,42.97
2019-01-19T03:03:57.487Z,42.97
2019-01-19T03:04:58.683Z,43
2019-01-19T03:05:57.688Z,42.94
2019-01-19T03:06:57.598Z,42.91
2019-01-19T03:07:57.669Z,42.99
2019-01-19T03:08:57.755Z,42.98
2019-01-19T03:09:58.013Z,42.92
2019-01-19T03:10:58.059Z,42.99
2019-01-19T03:11:57.665Z,42.96
2019-01-19T03:12:57.629Z,42.96
2019-01-19T03:13:57.925Z,43.01
2019-01-19T03:14:58.038Z,42.97
2019-01-19T03:15:58.122Z,42.89
2019-01-19T03:16:57.651Z,42.96
2019-01-19T03:17:57.948Z,42.95
2019-01-19T03:18:57.662Z,43
2019-01-19T03:19:57.661Z,42.95
2019-01-19T03:20:57.870Z,42.95
2019-01-19T03:21:57.661Z,42.97
2019-01-19T03:22:58.055Z,42.98
2019-01-19T03:23:57.700Z,42.94
2019-01-19T03:24:57.494Z,42.93
2019-01-19T03:25:57.715Z,42.9
2019-01-19T03:26:58.015Z,42.97
2019-01-19T03:27:57.709Z,42.9
2019-01-19T03:28:57.881Z,42.95
2019-01-19T03:29:57.778Z,42.95
2019-01-19T03:30:57.926Z,42.94
2019-01-19T03:31:57.739Z,42.97
2019-01-19T03:32:58.511Z,42.96
2019-01-19T03:33:57.776Z,42.93
2019-01-19T03:34:57.700Z,42.96
2019-01-19T03:36:04.990Z,42.92
2019-01-19T03:36:57.660Z,42.93
2019-01-19T03:37:57.683Z,42.91
2019-01-19T03:38:57.664Z,42.92
2019-01-19T03:39:57.656Z,42.95
2019-01-19T03:40:57.576Z,42.89
2019-01-19T03:41:57.739Z,42.93
2019-01-19T03:42:57.509Z,42.89
2019-01-19T03:43:58.272Z,42.94
2019-01-19T03:44:57.658Z,42.88
2019-01-19T03:45:57.662Z,42.96
2019-01-19T03:46:57.948Z,42.91
2019-01-19T03:47:57.777Z,42.96
2019-01-19T03:48:57.804Z,42.94
2019-01-19T03:49:57.948Z,42.9
2019-01-19T03:50:57.834Z,42.88
2019-01-19T03:51:58.115Z,42.86
2019-01-19T03:52:57.965Z,42.9
2019-01-19T03:53:57.793Z,42.85
2019-01-19T03:54:57.646Z,42.85
2019-01-19T03:55:57.686Z,42.88
2019-01-19T03:56:57.699Z,42.83
2019-01-19T03:57:57.592Z,42.94
2019-01-19T03:58:57.683Z,42.91
2019-01-19T03:59:57.840Z,42.9
2019-01-19T04:00:57.956Z,42.9
2019-01-19T04:01:57.816Z,42.89
2019-01-19T04:02:57.652Z,42.91
2019-01-19T04:03:57.889Z,42.96
2019-01-19T04:04:57.780Z,42.94
2019-01-19T04:05:57.729Z,42.92
2019-01-19T04:06:57.776Z,42.86
2019-01-19T04:07:57.623Z,42.9
2019-01-19T04:08:57.995Z,42.91
2019-01-19T04:09:57.522Z,42.9
2019-01-19T04:10:59.528Z,42.92
2019-01-19T04:11:58.715Z,42.86
2019-01-19T04:12:57.962Z,42.87
2019-01-19T04:13:57.935Z,42.87
2019-01-19T04:14:58.664Z,42.9
2019-01-19T04:15:57.728Z,42.87
2019-01-19T04:16:57.951Z,42.89
2019-01-19T04:17:57.959Z,42.87
2019-01-19T04:18:57.802Z,42.87
2019-01-19T04:19:57.907Z,42.85
2019-01-19T04:20:57.709Z,42.89
2019-01-19T04:21:57.607Z,42.88
2019-01-19T04:22:58.019Z,42.92
2019-01-19T04:23:57.661Z,42.92
2019-01-19T04:24:57.815Z,42.82
2019-01-19T04:25:57.587Z,42.82
2019-01-19T04:26:57.778Z,42.84
2019-01-19T04:27:57.889Z,42.86
2019-01-19T04:28:57.794Z,42.86
2019-01-19T04:29:59.571Z,42.87
2019-01-19T04:30:57.489Z,42.85
2019-01-19T04:31:58.006Z,42.83
2019-01-19T04:32:57.648Z,42.85
2019-01-19T04:33:57.860Z,42.83
2019-01-19T04:34:57.648Z,42.83
2019-01-19T04:35:58.124Z,42.82
2019-01-19T04:36:57.800Z,42.81
2019-01-19T04:37:57.603Z,42.94
2019-01-19T04:38:57.911Z,42.84
2019-01-19T04:39:57.731Z,42.88
2019-01-19T04:40:58.160Z,42.87
2019-01-19T04:41:57.655Z,42.9
2019-01-19T04:42:57.757Z,42.83
2019-01-19T04:43:57.949Z,42.84
2019-01-19T04:44:57.747Z,42.88
2019-01-19T04:45:57.606Z,42.91
2019-01-19T04:46:57.782Z,42.98
2019-01-19T04:47:57.988Z,42.98
2019-01-19T04:48:59.396Z,43
2019-01-19T04:49:57.776Z,43.03
2019-01-19T04:50:58.001Z,43.01
2019-01-19T04:51:57.881Z,42.97
2019-01-19T04:52:57.682Z,43.02
2019-01-19T04:53:57.639Z,43
2019-01-19T04:54:57.890Z,43.03
2019-01-19T04:55:57.770Z,42.99
2019-01-19T04:56:58.004Z,42.95
2019-01-19T04:57:57.675Z,42.93
2019-01-19T04:58:57.962Z,42.94
2019-01-19T04:59:58.621Z,42.83
2019-01-19T05:00:57.824Z,42.85
2019-01-19T05:01:57.962Z,42.92
2019-01-19T05:02:57.602Z,42.91
2019-01-19T05:03:57.941Z,42.86
2019-01-19T05:04:58.005Z,42.93
2019-01-19T05:05:58.060Z,42.89
2019-01-19T05:06:57.422Z,42.97
2019-01-19T05:07:57.874Z,42.84
2019-01-19T05:08:57.830Z,42.95
2019-01-19T05:09:57.849Z,42.95
2019-01-19T05:10:57.761Z,43.03
2019-01-19T05:11:57.707Z,43.03
2019-01-19T05:12:57.804Z,43.02
2019-01-19T05:13:57.688Z,43.05
2019-01-19T05:14:57.761Z,42.97
2019-01-19T05:15:57.526Z,43.01
2019-01-19T05:16:57.832Z,43.02
2019-01-19T05:17:57.679Z,43.02
2019-01-19T05:18:57.441Z,42.96
2019-01-19T05:19:57.713Z,42.96
2019-01-19T05:20:57.660Z,42.89
2019-01-19T05:21:57.765Z,42.89
2019-01-19T05:22:57.741Z,42.85
2019-01-19T05:23:57.828Z,42.8
2019-01-19T05:24:57.705Z,42.81
2019-01-19T05:25:57.565Z,42.77
2019-01-19T05:26:57.592Z,42.82
2019-01-19T05:27:57.841Z,42.75
2019-01-19T05:28:57.418Z,42.75
2019-01-19T05:29:57.621Z,42.76
2019-01-19T05:30:59.598Z,42.7
2019-01-19T05:31:57.737Z,42.75
2019-01-19T05:32:58.125Z,42.7
2019-01-19T05:33:57.678Z,42.75
2019-01-19T05:34:57.493Z,42.7
2019-01-19T05:35:58.051Z,42.68
2019-01-19T05:36:57.549Z,42.73
2019-01-19T05:37:57.620Z,42.65
2019-01-19T05:38:57.936Z,42.69
2019-01-19T05:39:57.855Z,42.67
2019-01-19T05:40:57.731Z,42.69
2019-01-19T05:41:57.612Z,42.67
2019-01-19T05:42:57.636Z,42.67
2019-01-19T05:43:58.071Z,42.65
2019-01-19T05:44:57.462Z,42.62
2019-01-19T05:45:57.704Z,42.64
2019-01-19T05:46:57.931Z,42.67
2019-01-19T05:47:57.724Z,42.67
2019-01-19T05:48:58.138Z,42.66
2019-01-19T05:49:57.617Z,42.62
2019-01-19T05:50:57.514Z,42.66
2019-01-19T05:51:57.613Z,42.56
2019-01-19T05:52:58.030Z,42.62
2019-01-19T05:53:57.823Z,42.67
2019-01-19T05:54:57.839Z,42.63
2019-01-19T05:55:57.952Z,42.54
2019-01-19T05:56:58.052Z,42.62
2019-01-19T05:57:57.873Z,42.63
2019-01-19T05:58:59.467Z,42.58
2019-01-19T05:59:57.707Z,42.57
2019-01-19T06:00:57.779Z,42.64
2019-01-19T06:01:57.593Z,42.61
2019-01-19T06:02:57.703Z,42.56
2019-01-19T06:03:57.614Z,42.58
2019-01-19T06:04:57.655Z,42.59
2019-01-19T06:05:58.002Z,42.57
2019-01-19T06:06:57.721Z,42.55
2019-01-19T06:07:57.408Z,42.57
2019-01-19T06:08:58.060Z,42.54
2019-01-19T06:09:59.421Z,42.58
2019-01-19T06:10:58.984Z,42.51
2019-01-19T06:11:58.074Z,42.51
2019-01-19T06:12:57.722Z,42.52
2019-01-19T06:13:57.509Z,42.52
2019-01-19T06:14:57.666Z,42.53
2019-01-19T06:15:57.430Z,42.47
2019-01-19T06:16:57.806Z,42.5
2019-01-19T06:17:57.703Z,42.5
2019-01-19T06:18:57.939Z,42.43
2019-01-19T06:19:57.542Z,42.43
2019-01-19T06:20:58.030Z,42.43
2019-01-19T06:21:57.477Z,42.48
2019-01-19T06:22:57.855Z,42.43
2019-01-19T06:23:57.844Z,42.46
2019-01-19T06:24:57.718Z,42.46
2019-01-19T06:25:57.575Z,42.45
2019-01-19T06:26:57.844Z,42.4
2019-01-19T06:27:57.664Z,42.37
2019-01-19T06:28:59.372Z,42.42
2019-01-19T06:29:57.639Z,42.36
2019-01-19T06:30:57.456Z,42.35
2019-01-19T06:31:57.833Z,42.36
2019-01-19T06:32:57.927Z,42.46
2019-01-19T06:33:57.597Z,42.36
2019-01-19T06:34:59.332Z,42.37
2019-01-19T06:35:57.834Z,42.37
2019-01-19T06:36:57.726Z,42.37
2019-01-19T06:37:57.524Z,42.34
2019-01-19T06:38:57.571Z,42.34
2019-01-19T06:39:57.676Z,42.29
2019-01-19T06:40:57.852Z,42.29
2019-01-19T06:41:58.166Z,42.32
2019-01-19T06:42:58.162Z,42.3
2019-01-19T06:43:57.403Z,42.28
2019-01-19T06:44:57.556Z,42.29
2019-01-19T06:45:57.569Z,42.26
2019-01-19T06:46:58.028Z,42.31
2019-01-19T06:47:58.788Z,42.19
2019-01-19T06:48:57.816Z,42.23
2019-01-19T06:49:57.804Z,42.2
2019-01-19T06:50:57.725Z,42.22
2019-01-19T06:51:57.717Z,42.26
2019-01-19T06:52:57.859Z,42.19
2019-01-19T06:54:02.229Z,42.25
2019-01-19T06:54:57.742Z,42.22
2019-01-19T06:55:57.662Z,42.2
2019-01-19T06:56:57.695Z,42.12
2019-01-19T06:57:57.792Z,42.2
2019-01-19T06:58:57.681Z,42.24
2019-01-19T06:59:57.685Z,42.12
2019-01-19T07:00:57.817Z,42.15
2019-01-19T07:01:57.655Z,42.17
2019-01-19T07:02:57.425Z,42.15
2019-01-19T07:03:57.450Z,42.16
2019-01-19T07:04:57.657Z,42.16
2019-01-19T07:05:57.832Z,42.11
2019-01-19T07:07:03.336Z,42.09
2019-01-19T07:07:57.782Z,42.13
2019-01-19T07:08:57.938Z,42.08
2019-01-19T07:09:57.530Z,42.17
2019-01-19T07:10:57.674Z,42.08
2019-01-19T07:11:57.566Z,42.12
2019-01-19T07:12:57.989Z,42.15
2019-01-19T07:13:59.383Z,42.07
2019-01-19T07:14:57.567Z,42.13
2019-01-19T07:15:57.935Z,42.02
2019-01-19T07:16:57.919Z,42.11
2019-01-19T07:17:57.897Z,42.12
2019-01-19T07:18:57.835Z,42.06
2019-01-19T07:19:58.520Z,42.07
2019-01-19T07:20:57.673Z,42.02
2019-01-19T07:21:58.503Z,42.07
2019-01-19T07:22:58.020Z,42.06
2019-01-19T07:23:57.967Z,41.98
2019-01-19T07:24:57.641Z,41.89
2019-01-19T07:25:57.759Z,42.02
2019-01-19T07:26:58.312Z,42.05
2019-01-19T07:27:57.935Z,42.05
2019-01-19T07:28:57.469Z,42.01
2019-01-19T07:29:57.570Z,42.03
2019-01-19T07:30:57.579Z,41.97
2019-01-19T07:31:57.529Z,41.98
2019-01-19T07:32:57.751Z,42.02
2019-01-19T07:33:57.635Z,41.93
2019-01-19T07:34:57.846Z,41.89
2019-01-19T07:35:57.762Z,41.94
2019-01-19T07:36:57.902Z,41.97
2019-01-19T07:37:57.695Z,41.93
2019-01-19T07:38:57.561Z,41.86
2019-01-19T07:39:57.811Z,41.92
2019-01-19T07:40:57.710Z,41.99
2019-01-19T07:41:57.870Z,41.94
2019-01-19T07:42:57.748Z,41.94
2019-01-19T07:43:58.309Z,41.85
2019-01-19T07:44:57.833Z,41.89
2019-01-19T07:45:57.561Z,41.89
2019-01-19T07:46:58.157Z,41.94
2019-01-19T07:47:58.175Z,41.92
2019-01-19T07:48:58.019Z,41.84
2019-01-19T07:49:57.820Z,41.93
2019-01-19T07:50:57.849Z,41.87
2019-01-19T07:51:57.652Z,41.83
2019-01-19T07:52:58.039Z,41.83
2019-01-19T07:53:57.460Z,41.97
2019-01-19T07:54:58.793Z,41.94
2019-01-19T07:55:57.901Z,41.78
2019-01-19T07:56:58.055Z,41.86
2019-01-19T07:57:57.986Z,41.82
2019-01-19T07:58:57.680Z,41.83
2019-01-19T07:59:57.623Z,41.81
2019-01-19T08:00:57.491Z,41.81
2019-01-19T08:01:57.497Z,41.83
2019-01-19T08:02:57.621Z,41.86
2019-01-19T08:03:57.474Z,41.82
2019-01-19T08:04:57.584Z,41.84
2019-01-19T08:05:57.683Z,41.87
2019-01-19T08:06:57.588Z,41.86
2019-01-19T08:07:57.710Z,41.87
2019-01-19T08:08:57.976Z,41.81
2019-01-19T08:09:57.913Z,41.77
2019-01-19T08:10:57.472Z,41.8
2019-01-19T08:11:57.483Z,41.77
2019-01-19T08:12:58.442Z,41.76
2019-01-19T08:13:57.821Z,41.73
2019-01-19T08:14:57.666Z,41.73
2019-01-19T08:15:57.737Z,41.75
2019-01-19T08:16:57.591Z,41.8
2019-01-19T08:17:57.329Z,41.82
2019-01-19T08:18:57.676Z,41.8
2019-01-19T08:19:57.829Z,41.79
2019-01-19T08:20:58.215Z,41.75
2019-01-19T08:21:57.906Z,41.75
2019-01-19T08:22:57.621Z,41.71
2019-01-19T08:23:58.005Z,41.76
2019-01-19T08:24:57.465Z,41.87
2019-01-19T08:25:57.541Z,42.17
2019-01-19T08:26:58.032Z,42.42
2019-01-19T08:27:57.717Z,42.84
2019-01-19T08:28:57.911Z,43.02
2019-01-19T08:29:58.056Z,43.11
2019-01-19T08:30:57.734Z,42.99
2019-01-19T08:31:57.570Z,43.11
2019-01-19T08:32:58.050Z,43.27
2019-01-19T08:33:57.484Z,43.22
2019-01-19T08:34:57.772Z,43.13
2019-01-19T08:35:57.840Z,42.15
2019-01-19T08:36:57.722Z,42.06
2019-01-19T08:37:58.011Z,41.98
2019-01-19T08:38:57.819Z,41.77
2019-01-19T08:39:57.467Z,41.9
2019-01-19T08:40:57.550Z,41.93
2019-01-19T08:41:57.861Z,41.94
2019-01-19T08:42:57.381Z,42.04
2019-01-19T08:43:57.743Z,41.98
2019-01-19T08:44:57.850Z,42.02
2019-01-19T08:45:57.538Z,42.02
2019-01-19T08:46:57.751Z,41.97
2019-01-19T08:47:57.829Z,42
2019-01-19T08:48:57.385Z,41.97
2019-01-19T08:49:57.678Z,41.97
2019-01-19T08:50:57.659Z,41.99
2019-01-19T08:51:57.694Z,42
2019-01-19T08:52:57.358Z,42
2019-01-19T08:53:57.618Z,42.01
2019-01-19T08:54:58.677Z,42
2019-01-19T08:55:57.864Z,42
2019-01-19T08:56:58.129Z,41.97
2019-01-19T08:57:57.552Z,42.01
2019-01-19T08:58:57.428Z,42.02
2019-01-19T08:59:57.530Z,42.02
2019-01-19T09:00:57.941Z,42.04
2019-01-19T09:01:57.465Z,42.02
2019-01-19T09:02:58.483Z,41.96
2019-01-19T09:03:59.438Z,41.95
2019-01-19T09:04:57.521Z,42
2019-01-19T09:05:58.058Z,41.97
2019-01-19T09:06:57.492Z,41.96
2019-01-19T09:07:57.426Z,41.95
2019-01-19T09:08:57.469Z,41.98
2019-01-19T09:09:57.477Z,41.95
2019-01-19T09:10:57.225Z,41.89
2019-01-19T09:11:57.821Z,41.87
2019-01-19T09:12:57.922Z,41.81
2019-01-19T09:13:57.438Z,41.87
2019-01-19T09:14:57.393Z,41.82
2019-01-19T09:15:57.460Z,41.82
2019-01-19T09:16:58.453Z,41.76
2019-01-19T09:17:58.356Z,41.8
2019-01-19T09:18:57.808Z,41.73
2019-01-19T09:19:57.811Z,41.69
2019-01-19T09:20:57.542Z,41.72
2019-01-19T09:21:57.566Z,41.68
2019-01-19T09:22:57.930Z,41.65
2019-01-19T09:23:58.417Z,41.7
2019-01-19T09:24:57.641Z,41.7
2019-01-19T09:25:58.443Z,41.7
2019-01-19T09:26:57.905Z,41.72
2019-01-19T09:27:58.062Z,41.64
2019-01-19T09:28:57.524Z,41.55
2019-01-19T09:29:57.886Z,41.64
2019-01-19T09:30:57.592Z,41.59
2019-01-19T09:31:57.950Z,41.65
2019-01-19T09:32:57.890Z,41.62
2019-01-19T09:33:57.490Z,41.63
2019-01-19T09:34:57.625Z,41.56
2019-01-19T09:35:57.593Z,41.59
2019-01-19T09:36:57.491Z,41.63
2019-01-19T09:37:58.911Z,41.62
2019-01-19T09:38:58.096Z,41.62
2019-01-19T09:39:57.937Z,41.59
2019-01-19T09:41:01.472Z,41.61
2019-01-19T09:41:57.412Z,41.58
2019-01-19T09:42:57.810Z,41.58
2019-01-19T09:43:58.231Z,41.54
2019-01-19T09:44:57.529Z,41.58
2019-01-19T09:45:57.462Z,41.56
2019-01-19T09:46:58.238Z,41.54
2019-01-19T09:47:58.802Z,41.59
2019-01-19T09:48:57.740Z,41.54
2019-01-19T09:49:57.610Z,41.53
2019-01-19T09:50:58.275Z,41.49
2019-01-19T09:51:57.735Z,41.48
2019-01-19T09:52:58.354Z,41.38
2019-01-19T09:53:57.519Z,41.54
2019-01-19T09:55:00.357Z,41.44
2019-01-19T09:55:57.760Z,41.45
2019-01-19T09:56:57.780Z,41.54
2019-01-19T09:57:58.104Z,41.5
2019-01-19T09:58:58.179Z,41.54
2019-01-19T09:59:57.914Z,41.52
2019-01-19T10:01:00.216Z,41.43
2019-01-19T10:01:57.993Z,41.42
2019-01-19T10:02:57.791Z,41.49
2019-01-19T10:03:57.760Z,41.4
2019-01-19T10:04:57.755Z,41.42
2019-01-19T10:05:57.702Z,41.44
2019-01-19T10:06:57.846Z,41.4
2019-01-19T10:07:57.505Z,41.44
2019-01-19T10:08:57.331Z,41.44
2019-01-19T10:09:57.562Z,41.38
2019-01-19T10:10:57.734Z,41.46
2019-01-19T10:11:59.593Z,41.42
2019-01-19T10:12:57.508Z,41.4
2019-01-19T10:13:57.917Z,41.32
2019-01-19T10:14:57.931Z,41.37
2019-01-19T10:15:57.831Z,41.39
2019-01-19T10:16:57.307Z,41.38
2019-01-19T10:17:57.506Z,41.37
2019-01-19T10:18:57.588Z,41.35
2019-01-19T10:19:57.457Z,41.38
2019-01-19T10:20:57.396Z,41.37
2019-01-19T10:21:57.515Z,41.34
2019-01-19T10:22:57.694Z,41.26
2019-01-19T10:23:57.490Z,41.31
2019-01-19T10:24:57.536Z,41.31
2019-01-19T10:25:57.631Z,41.33
2019-01-19T10:26:57.891Z,41.31
2019-01-19T10:27:57.760Z,41.5
2019-01-19T10:28:57.660Z,41.47
2019-01-19T10:29:57.312Z,41.7
2019-01-19T10:30:57.804Z,41.44
2019-01-19T10:31:57.781Z,41.48
2019-01-19T10:32:57.760Z,41.64
2019-01-19T10:33:57.695Z,41.59
2019-01-19T10:34:57.670Z,41.8
2019-01-19T10:35:57.724Z,41.54
2019-01-19T10:36:58.399Z,41.46
2019-01-19T10:37:58.128Z,41.5
2019-01-19T10:38:57.722Z,41.45
2019-01-19T10:39:57.722Z,41.38
2019-01-19T10:40:58.097Z,41.33
2019-01-19T10:41:57.701Z,41.11
2019-01-19T10:42:57.467Z,41.08
2019-01-19T10:43:57.731Z,41.03
2019-01-19T10:44:57.785Z,41.04
2019-01-19T10:45:58.037Z,41.07
2019-01-19T10:46:57.979Z,41.13
2019-01-19T10:47:57.738Z,41.14
2019-01-19T10:48:57.536Z,41.04
2019-01-19T10:49:57.814Z,41.21
2019-01-19T10:50:57.515Z,41.12
2019-01-19T10:51:59.937Z,40.88
2019-01-19T10:52:57.616Z,41.28
2019-01-19T10:53:57.779Z,41.17
2019-01-19T10:54:57.737Z,40.96
2019-01-19T10:55:57.892Z,41.17
2019-01-19T10:56:57.566Z,40.92
2019-01-19T10:57:57.457Z,41.11
2019-01-19T10:58:57.912Z,41.08
2019-01-19T10:59:57.706Z,40.85
2019-01-19T11:00:57.749Z,40.98
2019-01-19T11:01:58.021Z,40.57
2019-01-19T11:02:58.115Z,40.72
2019-01-19T11:03:57.428Z,40.72
2019-01-19T11:04:58.472Z,40.91
2019-01-19T11:05:57.767Z,40.97
2019-01-19T11:06:57.869Z,41.03
2019-01-19T11:08:04.373Z,41.05
2019-01-19T11:08:57.347Z,41.05
2019-01-19T11:09:58.462Z,41.11
2019-01-19T11:10:57.930Z,41.17
2019-01-19T11:11:57.433Z,41.17
2019-01-19T11:12:58.102Z,41.22
2019-01-19T11:13:57.444Z,41.17
2019-01-19T11:14:59.640Z,41.18
2019-01-19T11:15:57.556Z,41.18
2019-01-19T11:16:57.717Z,42.85
2019-01-19T11:17:57.601Z,42.21
2019-01-19T11:18:57.998Z,41.68
2019-01-19T11:19:57.373Z,41.86
2019-01-19T11:20:57.899Z,41.89
2019-01-19T11:21:57.448Z,42.09
2019-01-19T11:22:58.230Z,42.12
2019-01-19T11:23:57.480Z,42.12
2019-01-19T11:24:57.281Z,42.06
2019-01-19T11:25:58.044Z,41.69
2019-01-19T11:26:57.975Z,41.66
2019-01-19T11:27:58.030Z,41.74
2019-01-19T11:28:58.093Z,41.64
2019-01-19T11:29:57.665Z,41.78
2019-01-19T11:30:57.796Z,41.86
2019-01-19T11:31:58.519Z,41.94
2019-01-19T11:32:58.316Z,41.4
2019-01-19T11:33:57.559Z,40.89
2019-01-19T11:34:57.499Z,41.78
2019-01-19T11:35:57.682Z,40.19
2019-01-19T11:36:57.897Z,40.62
2019-01-19T11:37:57.464Z,40.58
2019-01-19T11:38:57.785Z,41.04
2019-01-19T11:39:57.942Z,41.33
2019-01-19T11:40:58.054Z,41.45
2019-01-19T11:41:57.965Z,40.99
2019-01-19T11:42:58.202Z,41.27
2019-01-19T11:43:58.123Z,41.05
2019-01-19T11:44:57.456Z,41.23
2019-01-19T11:45:57.878Z,41.08
2019-01-19T11:46:58.308Z,41.39
2019-01-19T11:47:57.447Z,41.23
2019-01-19T11:48:57.241Z,41.36
2019-01-19T11:49:57.819Z,41.41
2019-01-19T11:50:57.756Z,41.36
2019-01-19T11:51:57.705Z,41.29
2019-01-19T11:52:57.725Z,41.44
2019-01-19T11:53:57.744Z,41.61
2019-01-19T11:54:57.781Z,41.51
2019-01-19T11:55:58.122Z,41.92
2019-01-19T11:56:57.609Z,41.45
2019-01-19T11:57:57.842Z,42.27
2019-01-19T11:58:58.093Z,41.58
2019-01-19T11:59:57.497Z,41.68
2019-01-19T12:00:57.595Z,41.48
2019-01-19T12:01:57.426Z,41.34
2019-01-19T12:02:57.595Z,41.78
2019-01-19T12:03:57.872Z,41.73
2019-01-19T12:04:57.308Z,41.8
2019-01-19T12:05:57.917Z,41.79
2019-01-19T12:06:58.671Z,41.81
2019-01-19T12:07:58.516Z,41.56
2019-01-19T12:08:58.020Z,41.8
2019-01-19T12:09:58.027Z,41.5
2019-01-19T12:10:57.650Z,41.76
2019-01-19T12:11:58.486Z,41.77
2019-01-19T12:12:59.166Z,41.75
2019-01-19T12:13:58.232Z,41.58
2019-01-19T12:14:57.451Z,41.9
2019-01-19T12:15:57.401Z,41.86
2019-01-19T12:16:57.341Z,41.86
2019-01-19T12:17:58.178Z,41.57
2019-01-19T12:18:57.935Z,41.6
2019-01-19T12:19:57.790Z,41.99
2019-01-19T12:20:58.601Z,41.39
2019-01-19T12:21:57.545Z,41.32
2019-01-19T12:22:57.874Z,41.41
2019-01-19T12:23:57.723Z,41.56
2019-01-19T12:24:58.211Z,41.73
2019-01-19T12:25:58.175Z,41.53
2019-01-19T12:26:57.479Z,41.83
2019-01-19T12:27:58.512Z,41.51
2019-01-19T12:28:57.539Z,41.78
2019-01-19T12:29:57.695Z,41.43
2019-01-19T12:30:57.870Z,41.67
2019-01-19T12:31:58.004Z,41.4
2019-01-19T12:32:57.941Z,41.34
2019-01-19T12:33:58.480Z,41.37
2019-01-19T12:34:58.964Z,41.37
2019-01-19T12:35:58.626Z,41.42
2019-01-19T12:36:57.888Z,41.45
2019-01-19T12:37:57.772Z,41.33
2019-01-19T12:38:57.945Z,40.98
2019-01-19T12:39:58.015Z,41.18
2019-01-19T12:40:57.727Z,41.34
2019-01-19T12:41:58.273Z,41.37
2019-01-19T12:42:57.405Z,41.38
2019-01-19T12:43:57.522Z,41.45
2019-01-19T12:44:57.959Z,41.46
2019-01-19T12:45:57.263Z,41.43
2019-01-19T12:46:57.741Z,41.38
2019-01-19T12:47:57.676Z,41.42
2019-01-19T12:48:57.759Z,41.43
2019-01-19T12:49:58.407Z,41.39
2019-01-19T12:50:57.762Z,41.49
2019-01-19T12:51:58.333Z,41.46
2019-01-19T12:52:57.781Z,41.45
2019-01-19T12:53:57.927Z,41.45
2019-01-19T12:54:57.551Z,41.47
2019-01-19T12:55:57.418Z,41.52
2019-01-19T12:56:58.371Z,41.53